Time;durP1;ratioP1;P1;durP2;ratioP2;P2;SDS_P1;SDS_P2;PMS_P1;PMS_P2;Temp;Humidity;BMP_temperature;BMP_pressure;BME280_temperature;BME280_humidity;BME280_pressure;Samples;Min_cycle;Max_cycle;Signal;HPM_P1;HPM_P2
2023/12/11 00:01:08;;;;;;;16.23;3.78;;;16.80;99.90;;;;;;5053160;28;20024;-64
2023/12/11 00:03:34;;;;;;;16.00;3.67;;;16.80;99.90;;;;;;5052963;28;20112;-63
2023/12/11 00:06:00;;;;;;;13.48;3.13;;;16.90;99.90;;;;;;5052698;28;20110;-64
2023/12/11 00:08:26;;;;;;;14.18;3.60;;;16.90;99.90;;;;;;5053295;28;20461;-64
2023/12/11 00:10:51;;;;;;;13.02;2.88;;;16.90;99.90;;;;;;5051587;28;20120;-64
2023/12/11 00:13:17;;;;;;;11.80;2.83;;;16.90;99.90;;;;;;5052953;28;20029;-64
2023/12/11 00:15:43;;;;;;;14.15;3.03;;;16.90;99.90;;;;;;5052807;28;20032;-64
2023/12/11 00:18:08;;;;;;;10.00;2.78;;;17.00;99.90;;;;;;5052637;28;20108;-64
2023/12/11 00:20:34;;;;;;;9.73;2.90;;;17.00;99.90;;;;;;5052709;28;20033;-64
2023/12/11 00:23:00;;;;;;;12.07;2.90;;;16.80;99.90;;;;;;5052735;28;20029;-64
2023/12/11 00:25:27;;;;;;;10.27;2.80;;;16.70;99.90;;;;;;5052681;28;20112;-64
2023/12/11 00:27:53;;;;;;;10.35;3.22;;;16.50;99.90;;;;;;5052559;28;20025;-64
2023/12/11 00:30:19;;;;;;;13.48;3.17;;;16.40;99.90;;;;;;5052566;28;20040;-64
2023/12/11 00:32:45;;;;;;;10.77;2.75;;;16.40;99.90;;;;;;5052648;28;20078;-64
2023/12/11 00:35:10;;;;;;;10.02;2.70;;;16.30;99.90;;;;;;5052417;28;20041;-64
2023/12/11 00:37:36;;;;;;;12.25;2.58;;;16.30;99.90;;;;;;5052481;28;20102;-65
2023/12/11 00:40:02;;;;;;;9.27;2.65;;;16.30;99.90;;;;;;5052467;28;20489;-65
2023/12/11 00:42:28;;;;;;;12.07;2.80;;;16.30;99.90;;;;;;5052450;28;20040;-64
2023/12/11 00:44:53;;;;;;;9.32;2.20;;;16.20;99.90;;;;;;5052210;28;20112;-64
2023/12/11 00:47:20;;;;;;;12.18;2.38;;;16.20;99.90;;;;;;5052080;28;20510;-64
2023/12/11 00:49:46;;;;;;;8.45;2.00;;;16.20;99.90;;;;;;5050716;28;20115;-63
2023/12/11 00:52:12;;;;;;;9.43;2.65;;;16.20;99.90;;;;;;5051953;28;20418;-64
2023/12/11 00:54:38;;;;;;;10.23;2.17;;;16.20;99.90;;;;;;5051451;28;20087;-64
2023/12/11 00:57:04;;;;;;;6.30;1.92;;;16.10;99.90;;;;;;5052005;28;20021;-64
2023/12/11 00:59:29;;;;;;;6.70;2.10;;;16.10;99.90;;;;;;5052038;28;20056;-64
2023/12/11 01:01:55;;;;;;;8.25;2.38;;;16.10;99.90;;;;;;5051835;28;20079;-64
2023/12/11 01:04:21;;;;;;;8.32;2.80;;;16.10;99.90;;;;;;5051630;28;20104;-64
2023/12/11 01:06:46;;;;;;;7.63;2.47;;;16.10;99.90;;;;;;5051922;28;20048;-64
2023/12/11 01:09:12;;;;;;;8.15;2.28;;;16.10;99.90;;;;;;5051979;28;20079;-64
2023/12/11 01:11:39;;;;;;;8.80;2.30;;;16.10;99.90;;;;;;5051743;28;20033;-64
2023/12/11 01:14:05;;;;;;;7.75;1.85;;;16.10;99.90;;;;;;5051700;28;20021;-64
2023/12/11 01:16:30;;;;;;;6.68;1.98;;;16.10;99.90;;;;;;5051665;28;20050;-64
2023/12/11 01:18:56;;;;;;;7.47;1.67;;;16.10;99.90;;;;;;5051217;28;20063;-64
2023/12/11 01:21:22;;;;;;;8.63;1.92;;;16.10;99.90;;;;;;5051994;28;20538;-64
2023/12/11 01:23:47;;;;;;;5.75;1.80;;;16.10;99.90;;;;;;5051620;28;20025;-64
2023/12/11 01:26:13;;;;;;;6.93;2.13;;;16.10;99.90;;;;;;5051632;28;20024;-64
2023/12/11 01:28:39;;;;;;;5.03;1.88;;;16.20;99.90;;;;;;5051500;28;20479;-63
2023/12/11 01:31:05;;;;;;;8.38;2.08;;;16.30;99.90;;;;;;5051284;28;20111;-64
2023/12/11 01:33:31;;;;;;;7.88;2.10;;;16.60;99.90;;;;;;5051416;28;20024;-64
2023/12/11 01:35:57;;;;;;;6.82;2.15;;;16.70;99.90;;;;;;5051449;28;20029;-64
2023/12/11 01:38:23;;;;;;;5.63;1.88;;;16.90;99.90;;;;;;5051241;28;20025;-64
2023/12/11 01:40:48;;;;;;;7.43;2.17;;;16.90;99.90;;;;;;5051447;28;20025;-64
2023/12/11 01:43:16;;;;;;;6.55;1.65;;;16.90;99.90;;;;;;5051321;28;20032;-64
2023/12/11 01:45:42;;;;;;;6.50;1.80;;;16.80;99.90;;;;;;5051550;28;20391;-64
2023/12/11 01:48:12;;;;;;;4.05;1.60;;;16.80;99.90;;;;;;5050933;28;20036;-63
2023/12/11 01:50:40;;;;;;;6.72;1.80;;;16.70;99.90;;;;;;5051047;28;20128;-63
2023/12/11 01:53:07;;;;;;;6.75;1.75;;;16.80;99.90;;;;;;5051562;28;20047;-64
2023/12/11 01:55:33;;;;;;;7.25;2.00;;;16.80;99.90;;;;;;5050909;28;20025;-64
2023/12/11 01:58:01;;;;;;;7.15;2.03;;;16.90;99.90;;;;;;5051018;28;20025;-64
2023/12/11 02:00:27;;;;;;;8.43;1.90;;;17.00;99.90;;;;;;5050923;28;20064;-63
2023/12/11 02:02:53;;;;;;;8.02;2.17;;;16.90;99.90;;;;;;5050515;28;20483;-64
2023/12/11 02:05:19;;;;;;;9.15;2.30;;;16.80;99.90;;;;;;5051063;28;20017;-64
2023/12/11 02:07:45;;;;;;;9.50;2.30;;;16.70;99.90;;;;;;5051030;28;20105;-64
2023/12/11 02:10:11;;;;;;;9.15;2.50;;;16.60;99.90;;;;;;5050834;28;20037;-64
2023/12/11 02:12:38;;;;;;;9.25;2.72;;;16.50;99.90;;;;;;5051003;28;20501;-64
2023/12/11 02:15:04;;;;;;;11.70;2.80;;;16.40;99.90;;;;;;5050913;28;20056;-64
2023/12/11 02:17:30;;;;;;;13.07;3.30;;;16.40;99.90;;;;;;5050620;28;20061;-64
2023/12/11 02:19:55;;;;;;;12.38;2.92;;;16.30;99.90;;;;;;5051140;28;20017;-64
2023/12/11 02:22:21;;;;;;;15.57;3.70;;;16.30;99.90;;;;;;5050871;28;20546;-64
2023/12/11 02:24:56;;;;;;;16.50;4.05;;;16.20;99.90;;;;;;5050856;28;20086;-64
2023/12/11 02:27:23;;;;;;;17.95;4.10;;;16.20;99.90;;;;;;5051140;28;20100;-64
2023/12/11 02:29:50;;;;;;;14.57;4.10;;;16.10;99.90;;;;;;5050706;28;20050;-64
2023/12/11 02:32:16;;;;;;;16.20;4.22;;;16.10;99.90;;;;;;5082646;28;20437;-64
2023/12/11 02:34:42;;;;;;;17.50;4.25;;;16.00;99.90;;;;;;5050786;28;20029;-64
2023/12/11 02:37:08;;;;;;;15.50;4.22;;;16.00;99.90;;;;;;5050831;28;20037;-64
2023/12/11 02:39:34;;;;;;;17.17;4.22;;;16.00;99.90;;;;;;5050644;28;20025;-64
2023/12/11 02:41:59;;;;;;;20.83;4.20;;;16.00;99.90;;;;;;5050667;28;20384;-64
2023/12/11 02:44:25;;;;;;;16.75;4.00;;;16.00;99.90;;;;;;5050569;28;20025;-64
2023/12/11 02:46:51;;;;;;;15.38;3.42;;;16.00;99.90;;;;;;5050359;28;20054;-64
2023/12/11 02:49:16;;;;;;;13.05;3.45;;;15.90;99.90;;;;;;5050544;28;20074;-64
2023/12/11 02:51:42;;;;;;;13.20;3.95;;;15.90;99.90;;;;;;5050863;28;20040;-64
2023/12/11 02:54:08;;;;;;;17.23;3.80;;;15.90;99.90;;;;;;5050624;28;20041;-62
2023/12/11 02:56:37;;;;;;;14.13;3.60;;;15.90;99.90;;;;;;5050487;28;20024;-64
2023/12/11 02:59:02;;;;;;;12.45;3.95;;;15.80;99.90;;;;;;5050635;28;20044;-64
2023/12/11 03:01:28;;;;;;;15.73;3.53;;;15.90;99.90;;;;;;5050439;28;20036;-64
2023/12/11 03:03:54;;;;;;;16.70;3.88;;;15.80;99.90;;;;;;5050427;28;20391;-64
2023/12/11 03:06:19;;;;;;;15.73;3.50;;;15.80;99.90;;;;;;5050545;28;20025;-64
2023/12/11 03:08:45;;;;;;;17.80;4.47;;;15.80;99.90;;;;;;5050339;28;20511;-64
2023/12/11 03:11:11;;;;;;;16.02;3.90;;;15.70;99.90;;;;;;5050493;28;20041;-64
2023/12/11 03:13:37;;;;;;;16.13;3.90;;;15.80;99.90;;;;;;5052272;28;20017;-64
2023/12/11 03:16:02;;;;;;;17.75;4.10;;;16.00;99.90;;;;;;5053637;28;20029;-64
2023/12/11 03:18:28;;;;;;;14.23;3.65;;;16.20;99.90;;;;;;5053735;28;20439;-64
2023/12/11 03:20:54;;;;;;;12.00;3.28;;;16.40;99.90;;;;;;5054091;28;20023;-64
2023/12/11 03:23:20;;;;;;;19.60;3.90;;;16.50;99.90;;;;;;5053846;28;20029;-64
2023/12/11 03:25:45;;;;;;;14.43;3.95;;;16.40;99.90;;;;;;5053789;28;20039;-64
2023/12/11 03:28:11;;;;;;;13.07;3.42;;;16.40;99.90;;;;;;5053966;28;20033;-64
2023/12/11 03:30:37;;;;;;;13.25;3.35;;;16.40;99.90;;;;;;5053331;28;20033;-64
2023/12/11 03:33:02;;;;;;;13.55;3.22;;;16.50;99.90;;;;;;5053674;28;20502;-64
2023/12/11 03:35:28;;;;;;;14.68;3.45;;;16.40;99.90;;;;;;5053996;28;20486;-63
2023/12/11 03:37:54;;;;;;;19.35;3.85;;;16.30;99.90;;;;;;5053544;28;20434;-64
2023/12/11 03:40:20;;;;;;;17.30;4.60;;;16.10;99.90;;;;;;5053505;28;20044;-64
2023/12/11 03:42:45;;;;;;;18.50;4.35;;;16.20;99.90;;;;;;5053314;28;20021;-63
2023/12/11 03:45:11;;;;;;;16.58;4.47;;;16.10;99.90;;;;;;5053078;28;20044;-64
2023/12/11 03:47:37;;;;;;;18.52;4.47;;;16.10;99.90;;;;;;5053445;28;20056;-64
2023/12/11 03:50:02;;;;;;;21.35;4.82;;;16.00;99.90;;;;;;5053187;28;20061;-64
2023/12/11 03:52:28;;;;;;;21.33;4.78;;;15.80;99.90;;;;;;5053495;28;20036;-64
2023/12/11 03:54:54;;;;;;;17.58;4.50;;;15.60;99.90;;;;;;5053282;28;20043;-64
2023/12/11 03:57:20;;;;;;;15.90;4.60;;;15.50;99.90;;;;;;5053147;28;20025;-64
2023/12/11 03:59:45;;;;;;;17.48;4.32;;;15.50;99.90;;;;;;5052698;28;20053;-64
2023/12/11 04:02:11;;;;;;;18.25;4.47;;;15.50;99.90;;;;;;5053125;28;20678;-64
2023/12/11 04:04:37;;;;;;;21.00;5.38;;;15.40;99.90;;;;;;5053144;28;20036;-64
2023/12/11 04:07:03;;;;;;;21.33;5.72;;;15.30;99.90;;;;;;5053060;28;20075;-64
2023/12/11 04:09:28;;;;;;;22.27;5.47;;;15.30;99.90;;;;;;5053115;28;20376;-64
2023/12/11 04:11:54;;;;;;;22.25;5.35;;;15.20;99.90;;;;;;5052761;28;20032;-67
2023/12/11 04:14:20;;;;;;;23.55;5.35;;;15.10;99.90;;;;;;5052945;28;20086;-64
2023/12/11 04:16:45;;;;;;;20.13;5.05;;;15.10;99.90;;;;;;5052824;28;20033;-64
2023/12/11 04:19:11;;;;;;;19.83;4.93;;;15.00;99.90;;;;;;5053073;28;20553;-64
2023/12/11 04:21:37;;;;;;;20.30;5.15;;;15.10;99.90;;;;;;5052779;28;20049;-63
2023/12/11 04:24:03;;;;;;;18.30;4.95;;;15.10;99.90;;;;;;5052479;28;20024;-64
2023/12/11 04:26:29;;;;;;;18.90;4.53;;;15.10;99.90;;;;;;5052329;28;20079;-64
2023/12/11 04:28:55;;;;;;;17.33;3.95;;;15.20;99.90;;;;;;5052564;28;20435;-64
2023/12/11 04:31:23;;;;;;;18.23;4.50;;;15.20;99.90;;;;;;5052421;28;20044;-64
2023/12/11 04:33:49;;;;;;;18.73;4.05;;;15.20;99.90;;;;;;5051699;28;20043;-64
2023/12/11 04:36:15;;;;;;;19.30;4.28;;;15.30;99.90;;;;;;5052478;28;20037;-64
2023/12/11 04:38:41;;;;;;;16.80;4.65;;;15.30;99.90;;;;;;5052259;28;20029;-64
2023/12/11 04:41:06;;;;;;;18.63;4.75;;;15.30;99.90;;;;;;5084267;28;20526;-64
2023/12/11 04:43:35;;;;;;;20.55;5.22;;;15.20;99.90;;;;;;5052344;28;20029;-64
2023/12/11 04:46:01;;;;;;;15.38;4.13;;;15.20;99.90;;;;;;5052252;28;20025;-64
2023/12/11 04:48:26;;;;;;;15.35;4.43;;;15.20;99.90;;;;;;5052290;28;20032;-64
2023/12/11 04:50:52;;;;;;;19.27;4.78;;;15.10;99.90;;;;;;5052129;28;20475;-64
2023/12/11 04:53:18;;;;;;;12.77;3.85;;;15.10;99.90;;;;;;5051959;28;20032;-64
2023/12/11 04:55:43;;;;;;;14.95;4.68;;;15.10;99.90;;;;;;5052053;28;20032;-64
2023/12/11 04:58:09;;;;;;;21.35;4.25;;;15.10;99.90;;;;;;5051756;28;20483;-63
2023/12/11 05:00:35;;;;;;;17.05;4.38;;;15.30;99.90;;;;;;5052028;28;20411;-63
2023/12/11 05:03:01;;;;;;;14.63;3.80;;;15.30;99.90;;;;;;5052028;28;20486;-64
2023/12/11 05:05:26;;;;;;;18.48;4.30;;;15.40;99.90;;;;;;5050639;28;20033;-64
2023/12/11 05:07:52;;;;;;;16.67;4.68;;;15.50;99.90;;;;;;5051774;28;20025;-64
2023/12/11 05:10:18;;;;;;;16.13;4.63;;;15.50;99.90;;;;;;5051471;28;20029;-64
2023/12/11 05:12:43;;;;;;;16.17;4.78;;;15.60;99.90;;;;;;5051865;28;20104;-64
2023/12/11 05:15:09;;;;;;;15.27;5.00;;;15.70;99.90;;;;;;5052280;28;20036;-63
2023/12/11 05:17:35;;;;;;;17.48;5.75;;;15.80;99.90;;;;;;5051653;28;20031;-64
2023/12/11 05:20:01;;;;;;;19.75;5.72;;;15.70;99.90;;;;;;5051672;28;20116;-64
2023/12/11 05:22:26;;;;;;;22.33;5.72;;;15.80;99.90;;;;;;5051561;28;20111;-63
2023/12/11 05:24:52;;;;;;;20.20;5.60;;;15.70;99.90;;;;;;5051377;28;20063;-64
2023/12/11 05:27:18;;;;;;;17.80;5.28;;;15.80;99.90;;;;;;5051620;28;20434;-64
2023/12/11 05:29:44;;;;;;;19.95;5.10;;;16.00;99.90;;;;;;5051419;28;20037;-63
2023/12/11 05:32:10;;;;;;;22.70;5.22;;;15.90;99.90;;;;;;5051351;28;20032;-63
2023/12/11 05:34:36;;;;;;;18.15;5.18;;;15.80;99.90;;;;;;5051436;28;20029;-64
2023/12/11 05:37:02;;;;;;;20.48;4.85;;;15.70;99.90;;;;;;5051068;28;20082;-64
2023/12/11 05:39:27;;;;;;;17.88;4.65;;;15.70;99.90;;;;;;5050984;28;20033;-64
2023/12/11 05:41:53;;;;;;;21.77;4.68;;;15.60;99.90;;;;;;5051323;28;20025;-64
2023/12/11 05:44:19;;;;;;;18.30;4.18;;;15.60;99.90;;;;;;5051251;28;20029;-63
2023/12/11 05:46:44;;;;;;;18.77;4.72;;;15.50;99.90;;;;;;5051231;28;20014;-64
2023/12/11 05:49:10;;;;;;;15.95;3.83;;;15.50;99.90;;;;;;5051418;28;20562;-64
2023/12/11 05:51:36;;;;;;;18.52;4.88;;;15.50;99.90;;;;;;5051167;28;20032;-64
2023/12/11 05:54:02;;;;;;;17.10;4.30;;;15.40;99.90;;;;;;5050735;28;20177;-64
2023/12/11 05:56:30;;;;;;;17.80;4.32;;;15.40;99.90;;;;;;5051280;28;20025;-64
2023/12/11 05:58:56;;;;;;;19.30;4.28;;;15.40;99.90;;;;;;5051248;28;20049;-64
2023/12/11 06:01:21;;;;;;;17.48;3.97;;;15.40;99.90;;;;;;5051104;28;20483;-64
2023/12/11 06:03:47;;;;;;;19.92;4.85;;;15.40;99.90;;;;;;5051009;28;20483;-64
2023/12/11 06:06:17;;;;;;;18.77;4.50;;;15.30;99.90;;;;;;5049956;28;20033;-64
2023/12/11 06:08:45;;;;;;;14.73;3.88;;;15.30;99.90;;;;;;5050636;28;20057;-64
2023/12/11 06:11:11;;;;;;;22.20;4.53;;;15.30;99.90;;;;;;5050919;28;20033;-64
2023/12/11 06:13:37;;;;;;;17.13;4.15;;;15.30;99.90;;;;;;5051370;28;20499;-64
2023/12/11 06:16:03;;;;;;;18.13;4.75;;;15.30;99.90;;;;;;5050953;28;20025;-64
2023/12/11 06:18:28;;;;;;;19.75;4.75;;;15.20;99.90;;;;;;5051008;28;20434;-64
2023/12/11 06:20:54;;;;;;;21.05;4.95;;;15.30;99.90;;;;;;5050754;28;20056;-64
2023/12/11 06:23:22;;;;;;;17.55;5.13;;;15.30;99.90;;;;;;5050761;28;20021;-64
2023/12/11 06:25:47;;;;;;;17.20;4.63;;;15.20;99.90;;;;;;5050968;28;20057;-65
2023/12/11 06:28:13;;;;;;;22.65;5.25;;;15.30;99.90;;;;;;5050545;28;20056;-65
2023/12/11 06:30:39;;;;;;;20.92;4.50;;;15.20;99.90;;;;;;5051110;28;20491;-64
2023/12/11 06:33:05;;;;;;;16.23;4.22;;;15.20;99.90;;;;;;5050997;28;20052;-65
2023/12/11 06:35:30;;;;;;;16.73;4.05;;;15.20;99.90;;;;;;5050697;28;20025;-63
2023/12/11 06:37:56;;;;;;;20.77;5.55;;;15.20;99.90;;;;;;5050444;28;20036;-64
2023/12/11 06:40:22;;;;;;;20.77;4.80;;;15.20;99.90;;;;;;5051011;28;20089;-64
2023/12/11 06:42:47;;;;;;;20.10;4.88;;;15.20;99.90;;;;;;5049531;28;20036;-64
2023/12/11 06:45:13;;;;;;;23.13;4.82;;;15.30;99.90;;;;;;5050924;28;20021;-65
2023/12/11 06:47:39;;;;;;;20.85;5.05;;;15.60;99.90;;;;;;5050762;28;20031;-62
2023/12/11 06:50:05;;;;;;;20.83;4.78;;;15.80;99.90;;;;;;5054291;28;20055;-62
2023/12/11 06:52:31;;;;;;;15.55;4.65;;;15.90;99.90;;;;;;5054057;28;20040;-64
2023/12/11 06:54:56;;;;;;;23.10;5.80;;;15.90;99.90;;;;;;5054455;28;20033;-62
2023/12/11 06:57:22;;;;;;;22.52;4.53;;;15.90;99.90;;;;;;5054686;28;20048;-64
2023/12/11 06:59:48;;;;;;;21.02;5.57;;;16.00;99.90;;;;;;5054200;28;20422;-63
2023/12/11 07:02:14;;;;;;;21.33;5.05;;;16.00;99.90;;;;;;5054459;28;20033;-64
2023/12/11 07:04:42;;;;;;;21.52;4.80;;;16.00;99.90;;;;;;5054077;28;20074;-64
2023/12/11 07:07:09;;;;;;;21.85;5.50;;;15.90;99.90;;;;;;5053896;28;20041;-64
2023/12/11 07:09:35;;;;;;;18.27;5.35;;;16.00;99.90;;;;;;5054300;28;20487;-64
2023/12/11 07:12:01;;;;;;;18.58;4.30;;;16.00;99.90;;;;;;5054029;28;20040;-64
2023/12/11 07:14:26;;;;;;;17.30;4.22;;;16.00;99.90;;;;;;5054170;28;20075;-64
2023/12/11 07:16:52;;;;;;;19.02;4.65;;;15.90;99.90;;;;;;5054083;28;20025;-64
2023/12/11 07:19:19;;;;;;;22.33;4.55;;;15.80;99.90;;;;;;5053790;28;20036;-64
2023/12/11 07:21:45;;;;;;;16.70;4.50;;;15.70;99.90;;;;;;5053632;28;20060;-64
2023/12/11 07:24:11;;;;;;;19.55;4.63;;;15.60;99.90;;;;;;5054022;28;20033;-64
2023/12/11 07:26:37;;;;;;;16.05;4.53;;;15.50;99.90;;;;;;5053943;28;20051;-64
2023/12/11 07:29:04;;;;;;;20.23;5.03;;;15.40;99.90;;;;;;5053817;28;20442;-64
2023/12/11 07:31:30;;;;;;;21.55;4.53;;;15.30;99.90;;;;;;5053686;28;20487;-64
2023/12/11 07:33:56;;;;;;;19.42;4.20;;;15.30;99.90;;;;;;5053610;28;20040;-64
2023/12/11 07:36:22;;;;;;;20.73;4.53;;;15.30;99.90;;;;;;5053660;28;20071;-64
2023/12/11 07:38:49;;;;;;;21.00;4.10;;;15.20;99.90;;;;;;5053610;28;20040;-64
2023/12/11 07:41:22;;;;;;;18.20;4.15;;;15.20;99.90;;;;;;5053527;28;20021;-64
2023/12/11 07:43:48;;;;;;;19.05;4.03;;;15.20;99.90;;;;;;5053495;28;20082;-64
2023/12/11 07:46:21;;;;;;;19.88;4.60;;;15.20;99.90;;;;;;5053352;28;20112;-64
2023/12/11 07:48:47;;;;;;;21.27;4.53;;;15.20;99.90;;;;;;5053367;28;20033;-64
2023/12/11 07:51:20;;;;;;;16.60;4.25;;;15.20;99.90;;;;;;5053237;28;20037;-66
2023/12/11 07:53:47;;;;;;;14.68;4.25;;;15.20;99.90;;;;;;5053138;28;20037;-64
2023/12/11 07:56:23;;;;;;;15.73;3.95;;;15.10;99.90;;;;;;5053181;28;20029;-64
2023/12/11 07:58:50;;;;;;;14.80;3.70;;;15.10;99.90;;;;;;5051301;28;20094;-64
2023/12/11 08:01:16;;;;;;;16.00;3.90;;;15.10;99.90;;;;;;5053261;28;20024;-64
2023/12/11 08:03:41;;;;;;;15.18;4.05;;;15.10;99.90;;;;;;5053480;28;20510;-64
2023/12/11 08:06:10;;;;;;;17.70;4.10;;;15.10;99.90;;;;;;5052731;28;20107;-66
2023/12/11 08:08:45;;;;;;;18.33;4.60;;;15.10;99.90;;;;;;5052942;28;20028;-66
2023/12/11 08:11:27;;;;;;;16.42;4.50;;;15.10;99.90;;;;;;5052814;28;20041;-66
2023/12/11 08:13:52;;;;;;;18.65;4.38;;;15.10;99.90;;;;;;5085251;28;20518;-65
2023/12/11 08:16:19;;;;;;;15.88;4.15;;;15.10;99.90;;;;;;5052744;28;20028;-66
2023/12/11 08:18:45;;;;;;;16.20;4.03;;;15.10;99.90;;;;;;5052579;28;20114;-66
2023/12/11 08:21:12;;;;;;;17.25;4.53;;;15.10;99.90;;;;;;5052780;28;20025;-66
2023/12/11 08:23:43;;;;;;;18.60;4.63;;;15.10;99.90;;;;;;5063654;28;20048;-64
2023/12/11 08:26:17;;;;;;;20.20;5.07;;;15.10;99.90;;;;;;5072058;28;20029;-65
2023/12/11 08:28:43;;;;;;;19.55;4.82;;;15.30;99.90;;;;;;5071457;28;20028;-66
2023/12/11 08:31:09;;;;;;;15.27;4.78;;;15.30;99.90;;;;;;5071795;28;20075;-65
2023/12/11 08:33:34;;;;;;;19.13;4.80;;;15.50;99.90;;;;;;5071377;28;20054;-65
2023/12/11 08:36:00;;;;;;;17.70;4.22;;;15.70;99.90;;;;;;5071340;28;20024;-66
2023/12/11 08:38:26;;;;;;;17.42;4.35;;;15.80;99.90;;;;;;5071939;28;20056;-66
2023/12/11 08:40:52;;;;;;;17.70;4.90;;;15.80;99.90;;;;;;5071997;28;20029;-66
2023/12/11 08:43:18;;;;;;;16.40;4.38;;;15.90;99.90;;;;;;5072506;28;20043;-66
2023/12/11 08:45:43;;;;;;;20.25;4.70;;;16.00;99.90;;;;;;5072007;28;20021;-66
2023/12/11 08:48:09;;;;;;;20.23;4.85;;;16.00;99.90;;;;;;5071540;28;20024;-66
2023/12/11 08:50:35;;;;;;;19.27;4.70;;;15.90;99.90;;;;;;5072031;28;20111;-66
2023/12/11 08:53:03;;;;;;;17.55;4.57;;;16.00;99.90;;;;;;5071972;28;20033;-66
2023/12/11 08:55:29;;;;;;;17.70;4.68;;;16.10;99.90;;;;;;5071847;28;20033;-66
2023/12/11 08:57:55;;;;;;;19.27;4.45;;;16.00;99.90;;;;;;5071831;28;20430;-66
2023/12/11 09:00:21;;;;;;;20.88;4.90;;;15.90;99.90;;;;;;5071771;28;20130;-66
2023/12/11 09:02:47;;;;;;;17.38;4.38;;;15.70;99.90;;;;;;5071729;28;20494;-66
2023/12/11 09:05:13;;;;;;;21.90;5.07;;;15.60;99.90;;;;;;5071846;28;20077;-66
2023/12/11 09:07:38;;;;;;;19.13;4.60;;;15.50;99.90;;;;;;5072002;28;20487;-66
2023/12/11 09:10:07;;;;;;;17.83;4.50;;;15.40;99.90;;;;;;5070737;28;20060;-65
2023/12/11 09:12:33;;;;;;;21.15;5.10;;;15.40;99.90;;;;;;5069975;28;20111;-66
2023/12/11 09:14:59;;;;;;;21.05;4.78;;;15.30;99.90;;;;;;5071451;28;20162;-66
2023/12/11 09:17:25;;;;;;;19.70;4.43;;;15.20;99.90;;;;;;5070690;28;20035;-66
2023/12/11 09:19:51;;;;;;;17.60;4.30;;;15.30;99.90;;;;;;5071754;28;20032;-66
2023/12/11 09:22:17;;;;;;;18.98;4.50;;;15.30;99.90;;;;;;5071952;28;20020;-65
2023/12/11 09:24:43;;;;;;;14.70;4.18;;;15.20;99.90;;;;;;5071629;28;20024;-66
2023/12/11 09:27:08;;;;;;;18.10;4.15;;;15.20;99.90;;;;;;5071926;28;20032;-66
2023/12/11 09:29:35;;;;;;;17.02;4.43;;;15.30;99.90;;;;;;5071695;28;20075;-66
2023/12/11 09:32:01;;;;;;;13.32;3.88;;;15.30;99.90;;;;;;5071645;28;20028;-66
2023/12/11 09:34:26;;;;;;;16.38;3.92;;;15.20;99.90;;;;;;5070382;28;20508;-65
2023/12/11 09:36:52;;;;;;;19.67;4.68;;;15.30;99.90;;;;;;5070904;28;20513;-65
2023/12/11 09:39:18;;;;;;;17.35;4.40;;;15.30;99.90;;;;;;5071508;28;20056;-64
2023/12/11 09:41:44;;;;;;;17.83;4.50;;;15.20;99.90;;;;;;5071212;28;20035;-66
2023/12/11 09:44:10;;;;;;;18.60;4.55;;;15.30;99.90;;;;;;5070326;28;20039;-66
2023/12/11 09:47:02;;;;;;;16.85;4.22;;;15.30;99.90;;;;;;5071092;28;20084;-66
2023/12/11 09:49:28;;;;;;;19.25;4.50;;;15.30;99.90;;;;;;5071028;28;20122;-66
2023/12/11 09:51:55;;;;;;;13.55;3.97;;;15.30;99.90;;;;;;5071135;28;20055;-66
2023/12/11 09:54:20;;;;;;;14.43;3.70;;;15.30;99.90;;;;;;5071184;28;20116;-66
2023/12/11 09:56:47;;;;;;;15.05;3.70;;;15.20;99.90;;;;;;5071094;28;20108;-66
2023/12/11 09:59:14;;;;;;;11.95;3.47;;;15.20;99.90;;;;;;5070152;28;20485;-64
2023/12/11 10:01:40;;;;;;;12.05;3.40;;;15.20;99.90;;;;;;5071112;28;20122;-65
2023/12/11 10:04:06;;;;;;;9.90;3.33;;;15.20;99.90;;;;;;5071058;28;20048;-65
2023/12/11 10:06:32;;;;;;;14.75;3.72;;;15.20;99.90;;;;;;5070593;28;20034;-65
2023/12/11 10:08:58;;;;;;;10.32;3.33;;;15.40;99.90;;;;;;5070408;28;20025;-64
2023/12/11 10:11:26;;;;;;;10.02;3.13;;;15.50;99.90;;;;;;5070768;28;20127;-67
2023/12/11 10:13:52;;;;;;;10.23;3.22;;;15.70;99.90;;;;;;5071312;28;20050;-65
2023/12/11 10:16:30;;;;;;;7.68;3.10;;;15.90;99.90;;;;;;5070678;28;20028;-65
2023/12/11 10:18:56;;;;;;;10.02;3.15;;;16.10;99.90;;;;;;5070513;28;20024;-64
2023/12/11 10:21:24;;;;;;;10.68;2.92;;;16.00;99.90;;;;;;5069917;28;20095;-66
2023/12/11 10:24:14;;;;;;;11.73;3.10;;;16.10;99.90;;;;;;5074319;28;20511;-66
2023/12/11 10:26:45;;;;;;;10.80;3.05;;;16.20;99.90;;;;;;5074796;28;20077;-66
2023/12/11 10:29:22;;;;;;;12.88;3.67;;;16.20;99.90;;;;;;5074394;28;20036;-66
2023/12/11 10:31:49;;;;;;;10.35;3.22;;;16.10;99.90;;;;;;5074313;28;20040;-64
2023/12/11 10:34:15;;;;;;;9.38;3.20;;;16.10;99.90;;;;;;5074683;28;20513;-64
2023/12/11 10:36:53;;;;;;;14.05;3.92;;;16.10;99.90;;;;;;5074708;28;20056;-64
2023/12/11 10:39:22;;;;;;;13.38;4.45;;;16.10;99.90;;;;;;5074607;28;20028;-66
2023/12/11 10:41:48;;;;;;;15.98;4.15;;;16.10;99.90;;;;;;5074554;28;20028;-66
2023/12/11 10:44:23;;;;;;;14.10;4.43;;;16.10;99.90;;;;;;5074124;28;20098;-66
2023/12/11 10:46:53;;;;;;;15.30;4.63;;;16.10;99.90;;;;;;5073701;28;20028;-66
2023/12/11 10:49:19;;;;;;;14.48;4.57;;;16.00;99.90;;;;;;5074595;28;20552;-66
2023/12/11 10:51:47;;;;;;;16.95;4.50;;;16.00;99.90;;;;;;5074492;28;20425;-66
2023/12/11 10:54:12;;;;;;;14.40;4.55;;;16.00;99.90;;;;;;5073723;28;20037;-65
2023/12/11 10:56:42;;;;;;;17.10;4.43;;;16.00;99.90;;;;;;5073977;28;20046;-65
2023/12/11 10:59:08;;;;;;;15.52;4.60;;;16.00;99.90;;;;;;5073150;28;20055;-66
2023/12/11 11:01:35;;;;;;;16.83;4.18;;;16.00;99.90;;;;;;5073541;28;20421;-66
2023/12/11 11:04:01;;;;;;;14.60;4.05;;;16.10;99.90;;;;;;5073495;28;20103;-65
2023/12/11 11:06:29;;;;;;;16.10;5.05;;;16.10;99.90;;;;;;5074280;28;20158;-66
2023/12/11 11:09:12;;;;;;;20.88;5.18;;;16.10;99.90;;;;;;5074258;28;20027;-66
2023/12/11 11:11:52;;;;;;;16.13;4.80;;;16.10;99.90;;;;;;5073940;28;20029;-65
2023/12/11 11:14:17;;;;;;;19.02;4.90;;;16.10;99.90;;;;;;5073693;28;20021;-66
2023/12/11 11:16:56;;;;;;;17.42;4.13;;;16.10;99.90;;;;;;5074024;28;20036;-66
2023/12/11 11:19:22;;;;;;;20.52;3.72;;;16.10;99.90;;;;;;5073962;28;20406;-65
2023/12/11 11:22:00;;;;;;;15.23;4.05;;;16.10;99.90;;;;;;5074131;28;20024;-65
2023/12/11 11:24:26;;;;;;;15.57;4.00;;;16.10;99.90;;;;;;5073675;28;20513;-66
2023/12/11 11:26:52;;;;;;;17.02;4.50;;;16.10;99.90;;;;;;5073525;28;20031;-64
2023/12/11 11:29:42;;;;;;;14.45;3.90;;;16.10;99.90;;;;;;5073563;28;20028;-66
2023/12/11 11:32:08;;;;;;;14.50;3.83;;;16.10;99.90;;;;;;5073734;28;20139;-65
2023/12/11 11:34:40;;;;;;;18.13;3.92;;;16.20;99.90;;;;;;5072908;28;20032;-65
2023/12/11 11:37:20;;;;;;;18.55;4.10;;;16.20;99.90;;;;;;5073269;28;20037;-64
2023/12/11 11:39:59;;;;;;;18.00;3.80;;;16.20;99.90;;;;;;5073556;28;20090;-66
2023/12/11 11:42:30;;;;;;;13.45;4.15;;;16.20;99.90;;;;;;5072662;28;20027;-65
2023/12/11 11:44:59;;;;;;;15.13;4.20;;;16.20;99.90;;;;;;5073273;28;20025;-64
2023/12/11 11:47:27;;;;;;;15.93;4.40;;;16.20;99.90;;;;;;5072476;28;20122;-65
2023/12/11 11:49:55;;;;;;;17.67;4.88;;;16.30;99.90;;;;;;5073348;28;20041;-64
2023/12/11 11:52:29;;;;;;;15.20;4.50;;;16.40;99.90;;;;;;5073285;28;20051;-65
2023/12/11 11:55:11;;;;;;;15.82;4.22;;;16.50;99.90;;;;;;5072543;28;20085;-65
2023/12/11 11:57:36;;;;;;;16.80;4.38;;;16.50;99.90;;;;;;5072689;28;20094;-66
2023/12/11 12:00:05;;;;;;;17.25;4.60;;;16.60;99.90;;;;;;5072978;28;20533;-65
2023/12/11 12:02:31;;;;;;;18.90;4.78;;;16.70;99.90;;;;;;5073260;28;20530;-65
2023/12/11 12:05:06;;;;;;;20.33;4.80;;;16.70;99.90;;;;;;5073006;28;20034;-65
2023/12/11 12:07:32;;;;;;;22.00;5.13;;;16.90;99.90;;;;;;5073290;28;20047;-64
2023/12/11 12:09:59;;;;;;;17.45;4.78;;;16.80;99.90;;;;;;5072085;28;20032;-65
2023/12/11 12:12:26;;;;;;;17.83;4.60;;;16.90;99.90;;;;;;5072403;28;20033;-66
2023/12/11 12:15:05;;;;;;;18.58;4.90;;;16.80;99.90;;;;;;5072603;28;20021;-66
2023/12/11 12:17:31;;;;;;;19.38;5.00;;;16.90;99.90;;;;;;5072588;28;20032;-66
2023/12/11 12:19:57;;;;;;;19.83;4.80;;;17.00;99.90;;;;;;5072730;28;20033;-66
2023/12/11 12:22:22;;;;;;;17.20;4.88;;;17.00;99.90;;;;;;5072944;28;20158;-66
2023/12/11 12:24:48;;;;;;;22.17;4.95;;;17.00;99.90;;;;;;5072668;28;20039;-66
2023/12/11 12:27:18;;;;;;;20.92;5.05;;;16.90;99.90;;;;;;5072340;28;20052;-65
2023/12/11 12:29:45;;;;;;;22.70;5.47;;;16.80;99.90;;;;;;5072586;28;20064;-66
2023/12/11 12:32:14;;;;;;;20.88;5.32;;;16.70;99.90;;;;;;5072901;28;20033;-66
2023/12/11 12:34:44;;;;;;;25.58;5.93;;;16.60;99.90;;;;;;5072412;28;20027;-66
2023/12/11 12:37:10;;;;;;;50.30;12.60;;;16.40;99.90;;;;;;5071968;28;20029;-66